Aérodrome :
LOGIN :

S'inscrire | Disclaimer

   EN    FR    IT 

 










Légende :    VFR   VFR Marginal   IFR   IFR Intensif   IFR Très Intensif
Visi : 
Plafond : 
>= 8 km
>= 3000ft
5 à 8 km
1000 à 3000 ft
1500m à 5 km
500 à 1000 ft
800 à 1500m
200 à 500 ft
< 800m
< 200 ft
Symboles :   Orages  Brouillard  Fortes neiges  Fortes précipitations  Vent > 20 kt
SIGMETs :   Divers  Orages  Givrage  Turbulence  Onde Orograph.  Cendres Volcan.






- Altitude de l'aérodrome : 2356 ft


LZTT - Poprad Tatry

DERNIER METAR :
  • 212019Z 18003KT 150V220 0200 R27/0450D FZFG OVC001 M05/M06 Q1034

METARs EXPIRÉS :
  • 212000Z VRB02KT 9999 3000SE BCFG FEW001 M05/M06 Q1035
  • 211930Z VRB02KT CAVOK M05/M06 Q1035
  • 211900Z 10002KT CAVOK M04/M05 Q1035
  • 211830Z 04004KT 340V070 CAVOK M04/M06 Q1035
  • 211800Z 33003KT 280V010 CAVOK M02/M06 Q1035
  • 211734Z 28004KT 220V320 CAVOK M01/M05 Q1035

TAF TAF LZTT
Valide du 21 à 18h jusqu'au 22 à 18h UTC


211700Z 2118/2218 VRB02KT CAVOK
BECMG 2119/2121 7000 BCFG FEW001
PROB30
TEMPO 2121/2208 0600 FZFG BKN001
BECMG 2209/2211 25008KT CAVOK
BECMG 2214/2216 VRB02KT 9999 SCT015 SCT060



MET'MAP, la Météo Aéronautique d'un coup d'oeil ! - Copyright ORBIFLY Décembre 2007 - Disclaimer

ORBIFLY MET'MAP TEAM :

Programmation & Développement : Alexandra Zaïnal
Sur une idée originale de : Baudouin d'Aumeries
Assistance à la programmation : Marc-Olivier Méhu
Soutien technique & logistique : Manuel Goepfert

Contact : metmap@orbifly.com




SOURCES & CREDITS :

   NOAA